createdAt,value
2023-05-15T00:00:34.170Z,13.86
2023-05-15T00:03:02.521Z,14.01
2023-05-15T00:05:29.961Z,13.62
2023-05-15T00:07:57.441Z,13.65
2023-05-15T00:10:25.141Z,13.76
2023-05-15T00:12:52.544Z,13.84
2023-05-15T00:15:19.946Z,14.09
2023-05-15T00:17:47.610Z,13.91
2023-05-15T00:20:15.635Z,14.22
2023-05-15T00:22:44.465Z,14.24
2023-05-15T00:25:14.481Z,14.47
2023-05-15T00:27:41.910Z,14.48
2023-05-15T00:30:09.700Z,13.92
2023-05-15T00:32:37.440Z,13.70
2023-05-15T00:35:05.378Z,14.19
2023-05-15T00:37:32.869Z,13.98
2023-05-15T00:40:00.944Z,14.23
2023-05-15T00:42:29.154Z,13.94
2023-05-15T00:44:57.120Z,13.94
2023-05-15T00:47:26.791Z,14.11
2023-05-15T00:49:54.573Z,14.07
2023-05-15T00:52:22.233Z,13.83
2023-05-15T00:54:50.039Z,14.39
2023-05-15T00:57:18.205Z,14.67
2023-05-15T00:59:45.634Z,14.38
2023-05-15T01:02:16.051Z,14.50
2023-05-15T01:04:43.503Z,14.51
2023-05-15T01:07:11.008Z,14.72
2023-05-15T01:09:42.241Z,14.38
2023-05-15T01:12:10.126Z,14.09
2023-05-15T01:14:37.630Z,14.26
2023-05-15T01:17:06.897Z,14.58
2023-05-15T01:19:36.143Z,14.79
2023-05-15T01:22:12.672Z,14.39
2023-05-15T01:24:59.887Z,14.65
2023-05-15T01:27:41.982Z,14.18
2023-05-15T01:30:23.669Z,14.27
2023-05-15T01:33:00.007Z,13.90
2023-05-15T01:35:51.834Z,13.96
2023-05-15T01:38:32.734Z,13.84
2023-05-15T01:41:06.747Z,13.90
2023-05-15T01:43:35.505Z,13.88
2023-05-15T01:46:04.063Z,14.00
2023-05-15T01:48:33.560Z,14.26
2023-05-15T01:51:03.786Z,14.47
2023-05-15T01:53:32.989Z,14.29
2023-05-15T01:56:00.453Z,14.25
2023-05-15T01:58:28.317Z,14.54
2023-05-15T02:00:56.655Z,14.58
2023-05-15T02:03:24.849Z,14.57
2023-05-15T02:05:53.636Z,14.78
2023-05-15T02:08:21.746Z,14.85
2023-05-15T02:10:49.736Z,15.09
2023-05-15T02:13:20.270Z,14.95
2023-05-15T02:15:48.071Z,14.86
2023-05-15T02:18:15.751Z,15.05
2023-05-15T02:20:43.435Z,14.68
2023-05-15T02:23:11.199Z,14.86
2023-05-15T02:26:04.673Z,15.28
2023-05-15T02:28:39.966Z,14.99
2023-05-15T02:31:26.993Z,15.10
2023-05-15T02:34:18.651Z,15.30
2023-05-15T02:36:48.899Z,15.31
2023-05-15T02:39:17.628Z,15.21
2023-05-15T02:41:46.969Z,15.20
2023-05-15T02:44:17.964Z,15.24
2023-05-15T02:46:47.551Z,15.44
2023-05-15T02:49:15.637Z,15.41
2023-05-15T02:51:43.171Z,15.46
2023-05-15T02:54:11.590Z,15.40
2023-05-15T02:56:39.000Z,15.54
2023-05-15T02:59:06.538Z,15.56
2023-05-15T03:01:34.305Z,15.62
2023-05-15T03:04:02.664Z,15.62
2023-05-15T03:06:31.692Z,15.56
2023-05-15T03:08:59.396Z,15.65
2023-05-15T03:11:26.789Z,15.44
2023-05-15T03:13:54.167Z,15.21
2023-05-15T03:16:21.847Z,15.34
2023-05-15T03:18:49.407Z,15.27
2023-05-15T03:21:17.746Z,15.24
2023-05-15T03:23:45.537Z,14.82
2023-05-15T03:26:13.023Z,15.00
2023-05-15T03:28:42.184Z,15.06
2023-05-15T03:31:10.141Z,15.28
2023-05-15T03:33:38.297Z,15.13
2023-05-15T03:36:06.553Z,15.29
2023-05-15T03:38:34.223Z,15.20
2023-05-15T03:41:01.593Z,15.27
2023-05-15T03:43:30.295Z,15.38
2023-05-15T03:45:59.198Z,15.42
2023-05-15T03:48:26.604Z,15.49
2023-05-15T03:50:54.214Z,15.59
2023-05-15T03:53:21.941Z,15.50
2023-05-15T03:55:49.366Z,15.55
2023-05-15T03:58:16.754Z,15.70
2023-05-15T04:00:44.455Z,15.60
2023-05-15T04:03:12.216Z,15.68
2023-05-15T04:05:39.699Z,16.03
2023-05-15T04:08:07.133Z,15.51
2023-05-15T04:10:34.848Z,15.38
2023-05-15T04:13:02.253Z,15.50
2023-05-15T04:15:29.838Z,15.67
2023-05-15T04:17:57.569Z,15.69
2023-05-15T04:20:25.201Z,15.61
2023-05-15T04:22:52.879Z,15.60
2023-05-15T04:25:20.855Z,15.24
2023-05-15T04:27:49.366Z,15.57
2023-05-15T04:30:18.378Z,15.64
2023-05-15T04:32:46.045Z,15.73
2023-05-15T04:35:15.059Z,15.65
2023-05-15T04:37:43.598Z,15.80
2023-05-15T04:40:12.234Z,15.81
2023-05-15T04:42:39.811Z,16.01
2023-05-15T04:45:08.066Z,15.94
2023-05-15T04:47:36.357Z,16.00
2023-05-15T04:50:04.043Z,16.01
2023-05-15T04:52:32.322Z,16.02
2023-05-15T04:55:00.061Z,15.99
2023-05-15T04:57:27.662Z,16.00
2023-05-15T04:59:55.079Z,15.86
2023-05-15T05:02:23.248Z,16.07
2023-05-15T05:04:51.018Z,15.66
2023-05-15T05:07:18.428Z,15.60
2023-05-15T05:09:46.131Z,15.76
2023-05-15T05:12:14.169Z,15.95
2023-05-15T05:14:42.221Z,15.46
2023-05-15T05:17:10.214Z,15.71
2023-05-15T05:19:37.590Z,15.45
2023-05-15T05:22:06.025Z,15.62
2023-05-15T05:24:37.712Z,15.61
2023-05-15T05:27:05.747Z,15.49
2023-05-15T05:29:33.338Z,15.53
2023-05-15T05:32:01.416Z,15.61
2023-05-15T05:34:30.416Z,15.65
2023-05-15T05:36:57.862Z,15.93
2023-05-15T05:39:25.689Z,15.90
2023-05-15T05:41:53.147Z,15.65
2023-05-15T05:44:20.600Z,15.26
2023-05-15T05:46:48.297Z,15.30
2023-05-15T05:49:15.769Z,15.86
2023-05-15T05:51:44.936Z,15.74
2023-05-15T05:54:14.935Z,15.29
2023-05-15T05:56:42.833Z,15.07
2023-05-15T05:59:10.444Z,15.19
2023-05-15T06:01:38.162Z,15.73
2023-05-15T06:04:06.052Z,15.68
2023-05-15T06:06:34.592Z,15.86
2023-05-15T06:09:02.283Z,16.07
2023-05-15T06:11:30.002Z,15.89
2023-05-15T06:13:57.410Z,16.15
2023-05-15T06:16:24.835Z,15.95
2023-05-15T06:18:53.121Z,15.99
2023-05-15T06:21:22.372Z,15.88
2023-05-15T06:23:49.997Z,15.91
2023-05-15T06:26:17.966Z,16.22
2023-05-15T06:28:45.355Z,16.29
2023-05-15T06:31:12.763Z,16.46
2023-05-15T06:33:40.545Z,16.36
2023-05-15T06:36:08.062Z,16.38
2023-05-15T06:38:36.072Z,16.52
2023-05-15T06:41:03.961Z,16.71
2023-05-15T06:43:31.369Z,16.80
2023-05-15T06:45:59.194Z,16.87
2023-05-15T06:48:26.826Z,16.83
2023-05-15T06:50:54.253Z,16.82
2023-05-15T06:53:22.748Z,16.69
2023-05-15T06:55:50.398Z,16.89
2023-05-15T06:58:18.100Z,17.07
2023-05-15T07:00:45.570Z,17.26
2023-05-15T07:03:14.516Z,17.30
2023-05-15T07:05:42.375Z,17.29
2023-05-15T07:08:09.797Z,17.57
2023-05-15T07:10:37.491Z,17.50
2023-05-15T07:13:04.896Z,17.55
2023-05-15T07:15:32.317Z,17.87
2023-05-15T07:18:00.011Z,17.66
2023-05-15T07:20:30.303Z,17.19
2023-05-15T07:22:59.965Z,17.60
2023-05-15T07:25:27.603Z,17.48
2023-05-15T07:27:55.229Z,17.20
2023-05-15T07:30:23.443Z,17.27
2023-05-15T07:32:50.983Z,17.49
2023-05-15T07:35:18.530Z,17.59
2023-05-15T07:37:46.754Z,17.71
2023-05-15T07:40:15.474Z,17.34
2023-05-15T07:42:44.170Z,17.43
2023-05-15T07:45:11.967Z,17.89
2023-05-15T07:47:42.799Z,17.88
2023-05-15T07:50:10.598Z,17.74
2023-05-15T07:52:38.289Z,17.51
2023-05-15T07:55:07.478Z,17.69
2023-05-15T10:34:14.531Z,19.31
2023-05-15T10:36:43.178Z,18.62
2023-05-15T10:39:11.052Z,19.09
2023-05-15T10:41:39.757Z,19.09
2023-05-15T10:44:07.520Z,18.83
2023-05-15T10:46:36.150Z,18.75
2023-05-15T10:49:04.508Z,19.08
2023-05-15T10:51:33.556Z,19.09
2023-05-15T10:54:03.711Z,19.13
2023-05-15T10:56:32.202Z,19.56
2023-05-15T10:59:08.829Z,19.53
2023-05-15T11:01:38.699Z,19.59
2023-05-15T11:04:17.688Z,19.82
2023-05-15T11:06:49.419Z,19.67
2023-05-15T11:09:25.917Z,19.82
2023-05-15T11:11:57.158Z,19.52
2023-05-15T11:14:27.274Z,20.00
2023-05-15T11:16:55.789Z,20.08
2023-05-15T11:19:29.136Z,19.96
2023-05-15T11:22:01.193Z,19.87
2023-05-15T11:24:30.709Z,19.62
2023-05-15T11:27:03.029Z,19.67
2023-05-15T11:29:31.471Z,20.48
2023-05-15T11:31:59.713Z,20.21
2023-05-15T11:34:31.684Z,20.53
2023-05-15T11:37:02.616Z,19.72
2023-05-15T11:39:30.160Z,20.12
2023-05-15T11:41:58.235Z,19.90
2023-05-15T11:44:26.905Z,19.85
2023-05-15T11:46:55.263Z,20.29
2023-05-15T11:49:22.914Z,20.48
2023-05-15T11:51:51.320Z,20.40
2023-05-15T11:54:18.790Z,20.35
2023-05-15T11:56:47.224Z,19.99
2023-05-15T11:59:15.068Z,19.64
2023-05-15T12:01:43.970Z,19.83
2023-05-15T12:04:13.885Z,19.82
2023-05-15T12:06:41.800Z,19.56
2023-05-15T12:09:14.363Z,19.89
2023-05-15T12:11:42.055Z,19.42
2023-05-15T12:14:12.764Z,19.37
2023-05-15T12:16:40.110Z,19.22
2023-05-15T12:19:07.985Z,19.66
2023-05-15T12:21:37.697Z,19.63
2023-05-15T12:24:08.050Z,19.98
2023-05-15T12:26:36.448Z,19.95
2023-05-15T12:29:04.423Z,19.91
2023-05-15T12:31:33.493Z,20.21
2023-05-15T12:34:01.219Z,19.83
2023-05-15T12:36:31.695Z,19.52
2023-05-15T12:39:05.112Z,19.92
2023-05-15T12:41:32.786Z,20.09
2023-05-15T12:44:00.159Z,19.98
2023-05-15T12:46:31.866Z,20.44
2023-05-15T12:48:59.843Z,20.09
2023-05-15T12:51:29.808Z,20.00
2023-05-15T12:53:58.293Z,20.23
2023-05-15T12:56:26.428Z,20.40
2023-05-15T12:58:54.610Z,20.59
2023-05-15T13:01:22.168Z,20.86
2023-05-15T13:03:51.188Z,20.68
2023-05-15T13:06:18.845Z,21.27
2023-05-15T13:08:47.730Z,21.77
2023-05-15T13:11:18.238Z,21.27
2023-05-15T13:13:47.670Z,21.39
2023-05-15T13:16:22.794Z,21.09
2023-05-15T13:18:50.818Z,20.86
2023-05-15T13:21:18.562Z,21.18
2023-05-15T13:23:46.029Z,20.68
2023-05-15T13:26:13.923Z,21.30
2023-05-15T13:28:41.316Z,21.28
2023-05-15T13:31:08.810Z,21.03
2023-05-15T13:33:36.502Z,21.19
2023-05-15T13:36:04.093Z,20.93
2023-05-15T13:38:31.480Z,20.98
2023-05-15T13:40:59.320Z,20.61
2023-05-15T13:43:26.965Z,20.87
2023-05-15T13:45:54.489Z,20.92
2023-05-15T13:48:22.465Z,20.92
2023-05-15T13:50:49.857Z,20.98
2023-05-15T13:53:17.258Z,21.05
2023-05-15T13:55:46.275Z,21.21
2023-05-15T13:58:14.103Z,20.83
2023-05-15T14:00:43.185Z,20.47
2023-05-15T14:03:13.305Z,20.64
2023-05-15T14:05:42.322Z,20.94
2023-05-15T14:08:09.911Z,21.03
2023-05-15T14:10:37.667Z,21.42
2023-05-15T14:13:05.093Z,21.12
2023-05-15T14:15:32.469Z,21.18
2023-05-15T14:18:00.197Z,21.44
2023-05-15T14:20:27.744Z,21.43
2023-05-15T14:22:56.378Z,21.11
2023-05-15T14:25:24.520Z,21.26
2023-05-15T14:27:51.932Z,21.49
2023-05-15T14:30:22.024Z,21.33
2023-05-15T14:32:49.705Z,20.87
2023-05-15T14:35:17.137Z,20.87
2023-05-15T14:37:45.220Z,21.05
2023-05-15T14:40:14.329Z,21.02
2023-05-15T14:42:41.722Z,20.87
2023-05-15T14:45:09.690Z,21.04
2023-05-15T14:47:37.467Z,21.07
2023-05-15T14:50:05.136Z,20.77
2023-05-15T14:52:32.567Z,20.61
2023-05-15T14:57:35.073Z,20.36
2023-05-15T15:00:04.481Z,20.33
2023-05-15T15:02:32.211Z,20.14
2023-05-15T15:04:59.781Z,20.47
2023-05-15T15:07:29.581Z,20.38
2023-05-15T15:09:56.936Z,20.26
2023-05-15T15:12:24.313Z,20.14
2023-05-15T15:14:52.039Z,20.30
2023-05-15T15:17:19.428Z,20.23
2023-05-15T15:19:46.856Z,20.29
2023-05-15T15:22:14.549Z,19.84
2023-05-15T15:24:41.883Z,20.18
2023-05-15T15:27:09.256Z,20.31
2023-05-15T15:29:36.905Z,19.81
2023-05-15T15:32:04.518Z,20.12
2023-05-15T15:34:31.942Z,19.93
2023-05-15T15:36:59.714Z,19.73
2023-05-15T15:39:27.082Z,19.75
2023-05-15T15:41:54.929Z,19.57
2023-05-15T15:44:23.697Z,19.58
2023-05-15T15:46:51.115Z,19.91
2023-05-15T15:49:18.434Z,19.63
2023-05-15T15:51:46.094Z,19.64
2023-05-15T15:54:13.442Z,19.68
2023-05-15T15:56:42.867Z,19.21
2023-05-15T15:59:10.602Z,19.63
2023-05-15T16:01:38.097Z,19.89
2023-05-15T16:04:06.253Z,19.59
2023-05-15T16:06:34.182Z,19.30
2023-05-15T16:09:01.622Z,19.52
2023-05-15T16:11:29.683Z,19.41
2023-05-15T16:13:57.029Z,19.90
2023-05-15T16:16:24.636Z,19.85
2023-05-15T16:18:52.354Z,19.96
2023-05-15T16:21:20.991Z,20.06
2023-05-15T16:23:48.398Z,20.01
2023-05-15T16:26:16.108Z,19.65
2023-05-15T16:28:43.482Z,19.95
2023-05-15T16:31:10.929Z,20.00
2023-05-15T16:33:38.582Z,20.19
2023-05-15T16:36:06.085Z,19.89
2023-05-15T16:38:33.471Z,19.75
2023-05-15T16:41:02.254Z,19.77
2023-05-15T16:43:29.710Z,19.67
2023-05-15T16:45:57.069Z,19.42
2023-05-15T16:48:27.381Z,19.69
2023-05-15T16:50:55.238Z,19.39
2023-05-15T16:53:22.763Z,19.45
2023-05-15T16:55:50.883Z,18.98
2023-05-15T16:58:18.303Z,19.00
2023-05-15T17:00:45.781Z,19.15
2023-05-15T17:03:13.750Z,19.30
2023-05-15T17:05:41.339Z,19.32
2023-05-15T17:08:08.741Z,19.37
2023-05-15T17:10:36.470Z,19.44
2023-05-15T17:13:04.645Z,19.35
2023-05-15T17:15:32.197Z,19.19
2023-05-15T17:17:59.843Z,19.53
2023-05-15T17:20:27.251Z,19.64
2023-05-15T17:22:55.631Z,19.67
2023-05-15T17:25:23.486Z,19.65
2023-05-15T17:27:50.873Z,19.48
2023-05-15T17:30:18.447Z,19.24
2023-05-15T17:32:46.147Z,19.48
2023-05-15T17:35:13.781Z,19.53
2023-05-15T17:37:41.414Z,19.59
2023-05-15T17:40:09.276Z,19.56
2023-05-15T17:42:36.828Z,19.56
2023-05-15T17:45:04.625Z,19.60
2023-05-15T17:47:32.477Z,19.56
2023-05-15T17:49:59.929Z,19.34
2023-05-15T17:52:27.557Z,19.43
2023-05-15T17:54:55.285Z,19.48
2023-05-15T17:57:22.624Z,19.38
2023-05-15T17:59:50.055Z,19.48
2023-05-15T18:02:17.674Z,19.62
2023-05-15T18:04:45.339Z,19.31
2023-05-15T18:07:12.726Z,19.30
2023-05-15T18:09:40.199Z,19.35
2023-05-15T18:12:08.028Z,19.10
2023-05-15T18:14:35.400Z,19.13
2023-05-15T18:17:03.318Z,19.17
2023-05-15T18:19:31.004Z,19.07
2023-05-15T18:22:02.977Z,18.93
2023-05-15T18:24:31.073Z,18.71
2023-05-15T18:26:58.473Z,18.70
2023-05-15T18:29:26.050Z,18.79
2023-05-15T18:31:53.807Z,18.64
2023-05-15T18:34:21.211Z,18.65
2023-05-15T18:36:52.111Z,18.62
2023-05-15T18:39:20.224Z,18.61
2023-05-15T18:41:47.630Z,18.61
2023-05-15T18:44:15.137Z,18.59
2023-05-15T18:46:43.200Z,18.63
2023-05-15T18:49:10.675Z,18.70
2023-05-15T18:51:38.172Z,18.83
2023-05-15T18:54:08.080Z,18.43
2023-05-15T18:56:35.934Z,18.55
2023-05-15T18:59:03.326Z,18.48
2023-05-15T19:01:31.017Z,18.54
2023-05-15T19:03:58.433Z,18.23
2023-05-15T19:06:25.796Z,18.24
2023-05-15T19:08:53.445Z,18.40
2023-05-15T19:11:21.325Z,18.37
2023-05-15T19:13:48.668Z,18.21
2023-05-15T19:16:16.350Z,17.97
2023-05-15T19:18:43.826Z,17.92
2023-05-15T19:21:11.387Z,17.89
2023-05-15T19:23:39.063Z,18.09
2023-05-15T19:26:06.458Z,17.94
2023-05-15T19:28:34.069Z,17.68
2023-05-15T19:31:01.751Z,17.77
2023-05-15T19:33:29.460Z,17.79
2023-05-15T19:35:56.886Z,17.75
2023-05-15T19:38:24.587Z,17.91
2023-05-15T19:40:52.990Z,17.70
2023-05-15T19:43:20.364Z,17.72
2023-05-15T19:45:48.216Z,17.51
2023-05-15T19:48:15.651Z,17.42
2023-05-15T19:50:44.999Z,17.52
2023-05-15T19:53:12.974Z,17.52
2023-05-15T19:55:40.353Z,17.24
2023-05-15T19:58:07.739Z,17.30
2023-05-15T20:00:35.536Z,17.43
2023-05-15T20:03:03.240Z,17.33
2023-05-15T20:05:30.755Z,17.43
2023-05-15T20:07:58.434Z,17.11
2023-05-15T20:10:26.581Z,16.99
2023-05-15T20:12:54.334Z,17.05
2023-05-15T20:15:21.846Z,16.48
2023-05-15T20:17:49.668Z,16.40
2023-05-15T20:20:17.682Z,16.74
2023-05-15T20:22:45.124Z,16.70
2023-05-15T20:25:12.782Z,16.77
2023-05-15T20:27:40.176Z,17.02
2023-05-15T20:30:08.001Z,16.87
2023-05-15T20:32:36.229Z,17.00
2023-05-15T20:35:04.032Z,17.16
2023-05-15T20:37:31.943Z,17.11
2023-05-15T20:40:00.163Z,17.46
2023-05-15T20:42:28.493Z,17.63
2023-05-15T20:44:56.001Z,17.55
2023-05-15T20:47:23.811Z,17.75
2023-05-15T20:49:51.314Z,17.61
2023-05-15T20:52:19.080Z,17.56
2023-05-15T20:54:46.715Z,17.63
2023-05-15T20:57:14.198Z,17.54
2023-05-15T20:59:41.756Z,17.60
2023-05-15T21:02:09.443Z,17.53
2023-05-15T21:04:37.204Z,17.42
2023-05-15T21:07:04.616Z,17.36
2023-05-15T21:09:33.143Z,17.48
2023-05-15T21:12:00.524Z,17.34
2023-05-15T21:14:29.166Z,17.40
2023-05-15T21:16:56.955Z,17.55
2023-05-15T21:19:24.621Z,17.47
2023-05-15T21:21:52.106Z,17.71
2023-05-15T21:24:20.185Z,17.45
2023-05-15T21:26:47.561Z,17.38
2023-05-15T21:29:15.007Z,17.37
2023-05-15T21:31:42.767Z,17.33
2023-05-15T21:34:10.165Z,17.29
2023-05-15T21:36:37.634Z,17.22
2023-05-15T21:39:05.435Z,17.18
2023-05-15T21:41:33.229Z,17.27
2023-05-15T21:44:00.854Z,17.24
2023-05-15T21:46:28.557Z,17.06
2023-05-15T21:48:55.952Z,17.35
2023-05-15T21:51:23.350Z,17.32
2023-05-15T21:53:51.045Z,16.94
2023-05-15T21:56:18.477Z,17.13
2023-05-15T21:58:46.071Z,17.27
2023-05-15T22:01:15.078Z,17.19
2023-05-15T22:03:42.813Z,17.18
2023-05-15T22:06:10.614Z,17.24
2023-05-15T22:08:37.971Z,17.27
2023-05-15T22:11:06.706Z,17.22
2023-05-15T22:13:34.100Z,17.16
2023-05-15T22:16:01.420Z,17.27
2023-05-15T22:18:29.139Z,17.25
2023-05-15T22:20:57.504Z,17.05
2023-05-15T22:23:24.919Z,17.14
2023-05-15T22:25:53.630Z,17.14
2023-05-15T22:28:21.261Z,17.21
2023-05-15T22:30:48.603Z,17.05
2023-05-15T22:33:16.748Z,17.24
2023-05-15T22:35:44.560Z,17.26
2023-05-15T22:38:12.282Z,17.37
2023-05-15T22:40:39.954Z,17.24
2023-05-15T22:43:07.308Z,17.00
2023-05-15T22:45:34.722Z,17.05
2023-05-15T22:48:02.463Z,17.14
2023-05-15T22:50:29.862Z,17.18
2023-05-15T22:52:58.819Z,17.20
2023-05-15T22:55:26.932Z,17.25
2023-05-15T22:57:54.347Z,17.12
2023-05-15T23:00:21.770Z,17.22
2023-05-15T23:02:49.493Z,17.21
2023-05-15T23:05:16.953Z,17.01
2023-05-15T23:07:44.338Z,17.33
2023-05-15T23:10:12.057Z,17.13
2023-05-15T23:12:39.725Z,16.86
2023-05-15T23:15:10.405Z,16.96
2023-05-15T23:17:41.319Z,16.99
2023-05-15T23:20:13.476Z,16.97
2023-05-15T23:22:41.230Z,16.63
2023-05-15T23:25:09.018Z,16.60
2023-05-15T23:27:36.935Z,16.65
2023-05-15T23:30:05.794Z,16.63
2023-05-15T23:32:34.348Z,16.69
2023-05-15T23:35:01.983Z,16.81
2023-05-15T23:37:29.627Z,16.71
2023-05-15T23:39:57.065Z,16.91
2023-05-15T23:42:24.468Z,16.88
2023-05-15T23:44:52.136Z,16.93
2023-05-15T23:47:19.484Z,16.89
2023-05-15T23:49:46.930Z,16.77
2023-05-15T23:52:14.600Z,16.90
2023-05-15T23:54:41.971Z,16.66
2023-05-15T23:57:09.324Z,16.49
2023-05-15T23:59:36.945Z,16.63
